sensor_id;sensor_type;location;lat;lon;timestamp;P1;durP1;ratioP1;P2;durP2;ratioP2
77451;SDS011;66537;52.370;4.832;2023-01-13T00:00:52;25.83;;;4.23;;
77451;SDS011;66537;52.370;4.832;2023-01-13T00:03:17;18.00;;;3.07;;
77451;SDS011;66537;52.370;4.832;2023-01-13T00:05:42;30.63;;;3.77;;
77451;SDS011;66537;52.370;4.832;2023-01-13T00:08:07;27.20;;;3.60;;
77451;SDS011;66537;52.370;4.832;2023-01-13T00:10:33;35.33;;;4.37;;
77451;SDS011;66537;52.370;4.832;2023-01-13T00:12:59;27.17;;;4.50;;
77451;SDS011;66537;52.370;4.832;2023-01-13T00:15:25;30.40;;;4.97;;
77451;SDS011;66537;52.370;4.832;2023-01-13T00:17:50;38.90;;;4.97;;
77451;SDS011;66537;52.370;4.832;2023-01-13T00:20:15;25.35;;;4.10;;
77451;SDS011;66537;52.370;4.832;2023-01-13T00:22:41;30.45;;;5.05;;
77451;SDS011;66537;52.370;4.832;2023-01-13T00:25:07;31.92;;;4.90;;
77451;SDS011;66537;52.370;4.832;2023-01-13T00:27:33;28.92;;;4.07;;
77451;SDS011;66537;52.370;4.832;2023-01-13T00:29:58;26.48;;;4.82;;
77451;SDS011;66537;52.370;4.832;2023-01-13T00:32:24;25.65;;;4.88;;
77451;SDS011;66537;52.370;4.832;2023-01-13T00:34:49;31.02;;;5.88;;
77451;SDS011;66537;52.370;4.832;2023-01-13T00:37:15;34.33;;;5.03;;
77451;SDS011;66537;52.370;4.832;2023-01-13T00:39:40;28.53;;;4.83;;
77451;SDS011;66537;52.370;4.832;2023-01-13T00:42:06;32.78;;;5.45;;
77451;SDS011;66537;52.370;4.832;2023-01-13T00:44:50;34.88;;;6.45;;
77451;SDS011;66537;52.370;4.832;2023-01-13T00:47:16;30.13;;;4.35;;
77451;SDS011;66537;52.370;4.832;2023-01-13T00:49:42;49.90;;;5.43;;
77451;SDS011;66537;52.370;4.832;2023-01-13T00:52:08;33.90;;;4.63;;
77451;SDS011;66537;52.370;4.832;2023-01-13T00:54:34;36.35;;;4.82;;
77451;SDS011;66537;52.370;4.832;2023-01-13T00:57:00;33.00;;;4.80;;
77451;SDS011;66537;52.370;4.832;2023-01-13T00:59:25;29.20;;;4.00;;
77451;SDS011;66537;52.370;4.832;2023-01-13T01:01:50;29.90;;;4.73;;
77451;SDS011;66537;52.370;4.832;2023-01-13T01:04:15;30.97;;;4.63;;
77451;SDS011;66537;52.370;4.832;2023-01-13T01:06:41;30.73;;;5.20;;
77451;SDS011;66537;52.370;4.832;2023-01-13T01:09:06;31.97;;;4.10;;
77451;SDS011;66537;52.370;4.832;2023-01-13T01:11:32;34.40;;;4.60;;
77451;SDS011;66537;52.370;4.832;2023-01-13T01:13:58;27.63;;;3.92;;
77451;SDS011;66537;52.370;4.832;2023-01-13T01:16:26;34.33;;;4.93;;
77451;SDS011;66537;52.370;4.832;2023-01-13T01:18:53;34.60;;;3.70;;
77451;SDS011;66537;52.370;4.832;2023-01-13T01:21:20;31.35;;;3.63;;
77451;SDS011;66537;52.370;4.832;2023-01-13T01:23:47;32.88;;;4.28;;
77451;SDS011;66537;52.370;4.832;2023-01-13T01:26:14;31.38;;;3.70;;
77451;SDS011;66537;52.370;4.832;2023-01-13T01:28:44;31.30;;;4.32;;
77451;SDS011;66537;52.370;4.832;2023-01-13T01:31:14;29.08;;;4.68;;
77451;SDS011;66537;52.370;4.832;2023-01-13T01:33:41;32.65;;;4.75;;
77451;SDS011;66537;52.370;4.832;2023-01-13T01:36:07;35.33;;;3.83;;
77451;SDS011;66537;52.370;4.832;2023-01-13T01:38:35;32.13;;;3.28;;
77451;SDS011;66537;52.370;4.832;2023-01-13T01:41:01;29.08;;;4.78;;
77451;SDS011;66537;52.370;4.832;2023-01-13T01:46:23;23.88;;;3.22;;
77451;SDS011;66537;52.370;4.832;2023-01-13T01:48:49;27.08;;;4.22;;
77451;SDS011;66537;52.370;4.832;2023-01-13T01:51:15;19.33;;;2.97;;
77451;SDS011;66537;52.370;4.832;2023-01-13T01:53:40;31.23;;;3.47;;
77451;SDS011;66537;52.370;4.832;2023-01-13T01:56:07;22.92;;;3.10;;
77451;SDS011;66537;52.370;4.832;2023-01-13T01:58:39;25.35;;;4.78;;
77451;SDS011;66537;52.370;4.832;2023-01-13T02:01:10;30.58;;;5.00;;
77451;SDS011;66537;52.370;4.832;2023-01-13T02:03:37;32.67;;;4.28;;
77451;SDS011;66537;52.370;4.832;2023-01-13T02:06:08;27.95;;;4.30;;
77451;SDS011;66537;52.370;4.832;2023-01-13T02:08:34;34.85;;;4.78;;
77451;SDS011;66537;52.370;4.832;2023-01-13T02:11:01;27.75;;;4.15;;
77451;SDS011;66537;52.370;4.832;2023-01-13T02:13:26;25.38;;;3.83;;
77451;SDS011;66537;52.370;4.832;2023-01-13T02:21:00;35.97;;;3.97;;
77451;SDS011;66537;52.370;4.832;2023-01-13T02:33:09;30.25;;;4.05;;
77451;SDS011;66537;52.370;4.832;2023-01-13T02:38:21;36.35;;;5.50;;
77451;SDS011;66537;52.370;4.832;2023-01-13T02:40:55;34.53;;;5.60;;
77451;SDS011;66537;52.370;4.832;2023-01-13T02:43:44;32.05;;;5.72;;
77451;SDS011;66537;52.370;4.832;2023-01-13T02:46:32;32.33;;;3.50;;
77451;SDS011;66537;52.370;4.832;2023-01-13T02:49:03;33.75;;;5.07;;
77451;SDS011;66537;52.370;4.832;2023-01-13T02:51:33;27.85;;;4.22;;
77451;SDS011;66537;52.370;4.832;2023-01-13T02:54:02;30.50;;;4.82;;
77451;SDS011;66537;52.370;4.832;2023-01-13T02:56:38;32.03;;;4.80;;
77451;SDS011;66537;52.370;4.832;2023-01-13T02:59:06;25.52;;;4.07;;
77451;SDS011;66537;52.370;4.832;2023-01-13T03:01:33;29.77;;;5.22;;
77451;SDS011;66537;52.370;4.832;2023-01-13T03:03:58;27.55;;;4.43;;
77451;SDS011;66537;52.370;4.832;2023-01-13T03:09:26;32.78;;;3.92;;
77451;SDS011;66537;52.370;4.832;2023-01-13T03:12:02;27.38;;;4.97;;
77451;SDS011;66537;52.370;4.832;2023-01-13T03:14:40;35.33;;;4.63;;
77451;SDS011;66537;52.370;4.832;2023-01-13T03:22:29;32.05;;;4.30;;
77451;SDS011;66537;52.370;4.832;2023-01-13T03:27:47;30.75;;;3.85;;
77451;SDS011;66537;52.370;4.832;2023-01-13T03:30:29;31.55;;;4.43;;
77451;SDS011;66537;52.370;4.832;2023-01-13T03:33:40;34.70;;;4.38;;
77451;SDS011;66537;52.370;4.832;2023-01-13T03:36:09;21.50;;;3.85;;
77451;SDS011;66537;52.370;4.832;2023-01-13T03:38:39;34.00;;;4.25;;
77451;SDS011;66537;52.370;4.832;2023-01-13T03:41:56;26.58;;;3.63;;
77451;SDS011;66537;52.370;4.832;2023-01-13T03:49:19;27.05;;;4.75;;
77451;SDS011;66537;52.370;4.832;2023-01-13T03:51:50;21.48;;;2.88;;
77451;SDS011;66537;52.370;4.832;2023-01-13T03:54:21;18.90;;;3.42;;
77451;SDS011;66537;52.370;4.832;2023-01-13T03:56:56;19.10;;;2.60;;
77451;SDS011;66537;52.370;4.832;2023-01-13T03:59:27;25.60;;;2.88;;
77451;SDS011;66537;52.370;4.832;2023-01-13T04:02:01;18.42;;;2.60;;
77451;SDS011;66537;52.370;4.832;2023-01-13T04:04:33;28.98;;;4.28;;
77451;SDS011;66537;52.370;4.832;2023-01-13T04:10:03;26.55;;;4.32;;
77451;SDS011;66537;52.370;4.832;2023-01-13T04:12:31;26.20;;;3.40;;
77451;SDS011;66537;52.370;4.832;2023-01-13T04:15:20;27.63;;;4.40;;
77451;SDS011;66537;52.370;4.832;2023-01-13T04:17:48;21.48;;;3.30;;
77451;SDS011;66537;52.370;4.832;2023-01-13T04:20:14;21.52;;;3.13;;
77451;SDS011;66537;52.370;4.832;2023-01-13T04:22:40;26.20;;;3.47;;
77451;SDS011;66537;52.370;4.832;2023-01-13T04:25:06;20.13;;;3.03;;
77451;SDS011;66537;52.370;4.832;2023-01-13T04:27:31;25.13;;;3.55;;
77451;SDS011;66537;52.370;4.832;2023-01-13T04:29:57;25.53;;;3.10;;
77451;SDS011;66537;52.370;4.832;2023-01-13T04:32:22;24.63;;;3.73;;
77451;SDS011;66537;52.370;4.832;2023-01-13T04:34:47;16.90;;;2.42;;
77451;SDS011;66537;52.370;4.832;2023-01-13T04:37:13;25.77;;;2.67;;
77451;SDS011;66537;52.370;4.832;2023-01-13T04:39:38;22.90;;;2.47;;
77451;SDS011;66537;52.370;4.832;2023-01-13T04:42:04;22.37;;;3.40;;
77451;SDS011;66537;52.370;4.832;2023-01-13T04:44:29;20.48;;;3.88;;
77451;SDS011;66537;52.370;4.832;2023-01-13T04:46:59;23.77;;;3.58;;
77451;SDS011;66537;52.370;4.832;2023-01-13T04:49:24;16.83;;;2.80;;
77451;SDS011;66537;52.370;4.832;2023-01-13T04:51:49;19.98;;;3.17;;
77451;SDS011;66537;52.370;4.832;2023-01-13T04:54:15;17.03;;;2.53;;
77451;SDS011;66537;52.370;4.832;2023-01-13T04:56:40;15.47;;;2.07;;
77451;SDS011;66537;52.370;4.832;2023-01-13T04:59:06;14.55;;;1.92;;
77451;SDS011;66537;52.370;4.832;2023-01-13T05:01:32;26.00;;;2.80;;
77451;SDS011;66537;52.370;4.832;2023-01-13T05:03:58;15.25;;;2.28;;
77451;SDS011;66537;52.370;4.832;2023-01-13T05:06:23;22.93;;;3.40;;
77451;SDS011;66537;52.370;4.832;2023-01-13T05:08:48;21.23;;;2.78;;
77451;SDS011;66537;52.370;4.832;2023-01-13T05:11:15;20.73;;;2.90;;
77451;SDS011;66537;52.370;4.832;2023-01-13T05:13:58;17.48;;;2.75;;
77451;SDS011;66537;52.370;4.832;2023-01-13T05:16:43;15.50;;;1.90;;
77451;SDS011;66537;52.370;4.832;2023-01-13T05:21:54;16.17;;;2.65;;
77451;SDS011;66537;52.370;4.832;2023-01-13T05:24:39;21.17;;;2.45;;
77451;SDS011;66537;52.370;4.832;2023-01-13T05:27:23;15.02;;;2.38;;
77451;SDS011;66537;52.370;4.832;2023-01-13T05:29:48;12.87;;;2.30;;
77451;SDS011;66537;52.370;4.832;2023-01-13T05:32:14;18.57;;;1.87;;
77451;SDS011;66537;52.370;4.832;2023-01-13T05:34:39;25.10;;;3.03;;
77451;SDS011;66537;52.370;4.832;2023-01-13T05:37:04;17.13;;;2.90;;
77451;SDS011;66537;52.370;4.832;2023-01-13T05:39:31;22.95;;;2.30;;
77451;SDS011;66537;52.370;4.832;2023-01-13T05:42:17;17.55;;;3.20;;
77451;SDS011;66537;52.370;4.832;2023-01-13T05:45:01;21.17;;;2.92;;
77451;SDS011;66537;52.370;4.832;2023-01-13T05:47:26;17.23;;;2.17;;
77451;SDS011;66537;52.370;4.832;2023-01-13T05:49:51;21.83;;;2.97;;
77451;SDS011;66537;52.370;4.832;2023-01-13T05:52:17;20.80;;;2.97;;
77451;SDS011;66537;52.370;4.832;2023-01-13T05:54:42;24.53;;;3.30;;
77451;SDS011;66537;52.370;4.832;2023-01-13T05:57:07;19.27;;;3.37;;
77451;SDS011;66537;52.370;4.832;2023-01-13T05:59:32;17.07;;;2.33;;
77451;SDS011;66537;52.370;4.832;2023-01-13T06:01:58;16.27;;;2.70;;
77451;SDS011;66537;52.370;4.832;2023-01-13T06:04:23;16.23;;;2.60;;
77451;SDS011;66537;52.370;4.832;2023-01-13T06:06:49;21.17;;;3.67;;
77451;SDS011;66537;52.370;4.832;2023-01-13T06:09:14;22.63;;;3.40;;
77451;SDS011;66537;52.370;4.832;2023-01-13T06:11:39;21.27;;;2.65;;
77451;SDS011;66537;52.370;4.832;2023-01-13T06:14:05;22.23;;;3.00;;
77451;SDS011;66537;52.370;4.832;2023-01-13T06:16:30;21.40;;;2.67;;
77451;SDS011;66537;52.370;4.832;2023-01-13T06:18:55;20.60;;;2.90;;
77451;SDS011;66537;52.370;4.832;2023-01-13T06:21:21;21.17;;;3.70;;
77451;SDS011;66537;52.370;4.832;2023-01-13T06:23:46;21.43;;;3.03;;
77451;SDS011;66537;52.370;4.832;2023-01-13T06:26:13;22.67;;;2.87;;
77451;SDS011;66537;52.370;4.832;2023-01-13T06:28:42;23.45;;;3.00;;
77451;SDS011;66537;52.370;4.832;2023-01-13T06:31:08;19.50;;;3.10;;
77451;SDS011;66537;52.370;4.832;2023-01-13T06:33:36;29.58;;;2.65;;
77451;SDS011;66537;52.370;4.832;2023-01-13T06:36:04;27.58;;;3.45;;
77451;SDS011;66537;52.370;4.832;2023-01-13T06:38:34;27.40;;;4.07;;
77451;SDS011;66537;52.370;4.832;2023-01-13T06:41:02;18.92;;;3.00;;
77451;SDS011;66537;52.370;4.832;2023-01-13T06:43:31;19.15;;;2.22;;
77451;SDS011;66537;52.370;4.832;2023-01-13T06:45:56;25.00;;;4.07;;
77451;SDS011;66537;52.370;4.832;2023-01-13T06:48:23;16.57;;;2.30;;
77451;SDS011;66537;52.370;4.832;2023-01-13T06:50:51;19.23;;;3.05;;
77451;SDS011;66537;52.370;4.832;2023-01-13T06:53:17;19.45;;;2.85;;
77451;SDS011;66537;52.370;4.832;2023-01-13T06:55:43;22.05;;;2.70;;
77451;SDS011;66537;52.370;4.832;2023-01-13T06:58:08;19.90;;;3.25;;
77451;SDS011;66537;52.370;4.832;2023-01-13T07:00:34;19.10;;;2.63;;
77451;SDS011;66537;52.370;4.832;2023-01-13T07:03:14;25.70;;;3.22;;
77451;SDS011;66537;52.370;4.832;2023-01-13T07:05:41;25.60;;;3.53;;
77451;SDS011;66537;52.370;4.832;2023-01-13T07:08:07;23.45;;;3.35;;
77451;SDS011;66537;52.370;4.832;2023-01-13T07:10:33;19.70;;;2.70;;
77451;SDS011;66537;52.370;4.832;2023-01-13T07:13:00;21.67;;;2.88;;
77451;SDS011;66537;52.370;4.832;2023-01-13T07:15:52;17.00;;;2.40;;
77451;SDS011;66537;52.370;4.832;2023-01-13T07:18:22;20.10;;;2.72;;
77451;SDS011;66537;52.370;4.832;2023-01-13T07:20:52;23.30;;;3.05;;
77451;SDS011;66537;52.370;4.832;2023-01-13T07:23:29;19.65;;;2.67;;
77451;SDS011;66537;52.370;4.832;2023-01-13T07:25:56;20.58;;;2.70;;
77451;SDS011;66537;52.370;4.832;2023-01-13T07:28:22;27.10;;;3.38;;
77451;SDS011;66537;52.370;4.832;2023-01-13T07:30:48;26.83;;;3.15;;
77451;SDS011;66537;52.370;4.832;2023-01-13T07:33:14;18.17;;;2.20;;
77451;SDS011;66537;52.370;4.832;2023-01-13T07:35:39;28.67;;;4.22;;
77451;SDS011;66537;52.370;4.832;2023-01-13T07:38:05;22.77;;;3.15;;
77451;SDS011;66537;52.370;4.832;2023-01-13T07:40:30;23.83;;;4.25;;
77451;SDS011;66537;52.370;4.832;2023-01-13T07:42:56;23.37;;;2.97;;
77451;SDS011;66537;52.370;4.832;2023-01-13T07:45:40;25.50;;;3.08;;
77451;SDS011;66537;52.370;4.832;2023-01-13T07:48:05;21.97;;;2.97;;
77451;SDS011;66537;52.370;4.832;2023-01-13T07:50:30;25.10;;;3.57;;
77451;SDS011;66537;52.370;4.832;2023-01-13T07:52:57;34.55;;;4.35;;
77451;SDS011;66537;52.370;4.832;2023-01-13T07:55:23;24.70;;;3.45;;
77451;SDS011;66537;52.370;4.832;2023-01-13T07:57:48;23.83;;;3.85;;
77451;SDS011;66537;52.370;4.832;2023-01-13T08:00:14;26.73;;;4.03;;
77451;SDS011;66537;52.370;4.832;2023-01-13T08:02:39;22.77;;;3.15;;
77451;SDS011;66537;52.370;4.832;2023-01-13T08:05:05;26.75;;;4.03;;
77451;SDS011;66537;52.370;4.832;2023-01-13T08:07:31;27.92;;;2.75;;
77451;SDS011;66537;52.370;4.832;2023-01-13T08:09:56;59.92;;;4.93;;
77451;SDS011;66537;52.370;4.832;2023-01-13T08:12:22;25.43;;;4.73;;
77451;SDS011;66537;52.370;4.832;2023-01-13T08:15:05;27.80;;;4.25;;
77451;SDS011;66537;52.370;4.832;2023-01-13T08:17:33;27.58;;;3.22;;
77451;SDS011;66537;52.370;4.832;2023-01-13T08:19:59;20.25;;;3.58;;
77451;SDS011;66537;52.370;4.832;2023-01-13T08:22:24;22.07;;;3.20;;
77451;SDS011;66537;52.370;4.832;2023-01-13T08:24:50;14.50;;;2.40;;
77451;SDS011;66537;52.370;4.832;2023-01-13T08:27:15;23.13;;;3.17;;
77451;SDS011;66537;52.370;4.832;2023-01-13T08:29:40;25.40;;;3.23;;
77451;SDS011;66537;52.370;4.832;2023-01-13T08:32:06;29.02;;;3.90;;
77451;SDS011;66537;52.370;4.832;2023-01-13T08:34:31;26.23;;;3.80;;
77451;SDS011;66537;52.370;4.832;2023-01-13T08:36:56;24.00;;;2.83;;
77451;SDS011;66537;52.370;4.832;2023-01-13T08:39:22;24.38;;;3.63;;
77451;SDS011;66537;52.370;4.832;2023-01-13T08:41:48;23.30;;;2.97;;
77451;SDS011;66537;52.370;4.832;2023-01-13T08:44:21;20.10;;;3.13;;
77451;SDS011;66537;52.370;4.832;2023-01-13T08:46:47;19.60;;;3.20;;
77451;SDS011;66537;52.370;4.832;2023-01-13T08:49:12;26.73;;;3.60;;
77451;SDS011;66537;52.370;4.832;2023-01-13T08:51:37;19.70;;;2.80;;
77451;SDS011;66537;52.370;4.832;2023-01-13T08:54:03;20.40;;;2.83;;
77451;SDS011;66537;52.370;4.832;2023-01-13T08:56:28;18.35;;;2.78;;
77451;SDS011;66537;52.370;4.832;2023-01-13T08:58:56;29.35;;;3.72;;
77451;SDS011;66537;52.370;4.832;2023-01-13T09:01:22;24.42;;;3.95;;
77451;SDS011;66537;52.370;4.832;2023-01-13T09:03:49;22.85;;;3.83;;
77451;SDS011;66537;52.370;4.832;2023-01-13T09:06:14;28.15;;;3.42;;
77451;SDS011;66537;52.370;4.832;2023-01-13T09:08:40;18.90;;;3.17;;
77451;SDS011;66537;52.370;4.832;2023-01-13T09:11:05;17.77;;;2.58;;
77451;SDS011;66537;52.370;4.832;2023-01-13T09:13:51;24.85;;;3.38;;
77451;SDS011;66537;52.370;4.832;2023-01-13T09:16:16;21.13;;;3.88;;
77451;SDS011;66537;52.370;4.832;2023-01-13T09:18:42;22.55;;;2.85;;
77451;SDS011;66537;52.370;4.832;2023-01-13T09:21:10;24.02;;;3.10;;
77451;SDS011;66537;52.370;4.832;2023-01-13T09:23:36;19.90;;;2.28;;
77451;SDS011;66537;52.370;4.832;2023-01-13T09:26:02;13.73;;;2.07;;
77451;SDS011;66537;52.370;4.832;2023-01-13T09:28:27;22.67;;;3.70;;
77451;SDS011;66537;52.370;4.832;2023-01-13T09:30:53;21.83;;;3.03;;
77451;SDS011;66537;52.370;4.832;2023-01-13T09:33:18;22.83;;;2.77;;
77451;SDS011;66537;52.370;4.832;2023-01-13T09:36:02;24.33;;;2.33;;
77451;SDS011;66537;52.370;4.832;2023-01-13T09:38:28;23.35;;;4.00;;
77451;SDS011;66537;52.370;4.832;2023-01-13T09:40:53;18.10;;;2.50;;
77451;SDS011;66537;52.370;4.832;2023-01-13T09:43:22;21.25;;;3.10;;
77451;SDS011;66537;52.370;4.832;2023-01-13T09:46:13;20.27;;;2.95;;
77451;SDS011;66537;52.370;4.832;2023-01-13T09:49:02;22.05;;;3.53;;
77451;SDS011;66537;52.370;4.832;2023-01-13T09:51:36;20.08;;;2.92;;
77451;SDS011;66537;52.370;4.832;2023-01-13T09:54:15;26.65;;;3.15;;
77451;SDS011;66537;52.370;4.832;2023-01-13T09:56:46;16.88;;;2.53;;
77451;SDS011;66537;52.370;4.832;2023-01-13T09:59:12;16.60;;;2.72;;
77451;SDS011;66537;52.370;4.832;2023-01-13T10:04:37;20.02;;;2.83;;
77451;SDS011;66537;52.370;4.832;2023-01-13T10:07:03;17.03;;;2.23;;
77451;SDS011;66537;52.370;4.832;2023-01-13T10:12:13;18.38;;;2.83;;
77451;SDS011;66537;52.370;4.832;2023-01-13T10:15:13;17.80;;;2.53;;
77451;SDS011;66537;52.370;4.832;2023-01-13T10:17:51;18.67;;;2.78;;
77451;SDS011;66537;52.370;4.832;2023-01-13T10:25:56;21.25;;;2.50;;
77451;SDS011;66537;52.370;4.832;2023-01-13T10:28:30;21.23;;;3.38;;
77451;SDS011;66537;52.370;4.832;2023-01-13T10:30:55;19.17;;;2.28;;
77451;SDS011;66537;52.370;4.832;2023-01-13T10:33:24;21.42;;;3.90;;
77451;SDS011;66537;52.370;4.832;2023-01-13T10:36:13;16.50;;;2.75;;
77451;SDS011;66537;52.370;4.832;2023-01-13T10:38:43;14.05;;;2.30;;
77451;SDS011;66537;52.370;4.832;2023-01-13T10:46:15;14.68;;;2.25;;
77451;SDS011;66537;52.370;4.832;2023-01-13T10:49:02;21.48;;;3.15;;
77451;SDS011;66537;52.370;4.832;2023-01-13T10:53:56;21.33;;;3.05;;
77451;SDS011;66537;52.370;4.832;2023-01-13T10:56:37;16.60;;;2.13;;
77451;SDS011;66537;52.370;4.832;2023-01-13T10:59:25;13.40;;;2.63;;
77451;SDS011;66537;52.370;4.832;2023-01-13T11:01:54;11.00;;;1.15;;
77451;SDS011;66537;52.370;4.832;2023-01-13T11:04:36;13.85;;;1.70;;
77451;SDS011;66537;52.370;4.832;2023-01-13T11:07:17;17.88;;;1.70;;
77451;SDS011;66537;52.370;4.832;2023-01-13T11:10:00;14.30;;;3.20;;
77451;SDS011;66537;52.370;4.832;2023-01-13T11:12:33;11.40;;;1.80;;
77451;SDS011;66537;52.370;4.832;2023-01-13T11:15:04;13.50;;;2.03;;
77451;SDS011;66537;52.370;4.832;2023-01-13T11:22:37;12.13;;;1.90;;
77451;SDS011;66537;52.370;4.832;2023-01-13T11:25:12;14.23;;;1.83;;
77451;SDS011;66537;52.370;4.832;2023-01-13T11:27:47;13.95;;;1.98;;
77451;SDS011;66537;52.370;4.832;2023-01-13T11:30:33;13.27;;;3.22;;
77451;SDS011;66537;52.370;4.832;2023-01-13T11:35:44;15.88;;;1.73;;
77451;SDS011;66537;52.370;4.832;2023-01-13T11:41:27;20.45;;;2.65;;
77451;SDS011;66537;52.370;4.832;2023-01-13T11:44:42;11.65;;;1.70;;
77451;SDS011;66537;52.370;4.832;2023-01-13T11:47:21;13.50;;;1.60;;
77451;SDS011;66537;52.370;4.832;2023-01-13T11:49:49;11.50;;;1.30;;
77451;SDS011;66537;52.370;4.832;2023-01-13T11:52:31;15.65;;;1.75;;
77451;SDS011;66537;52.370;4.832;2023-01-13T11:58:17;13.68;;;1.77;;
77451;SDS011;66537;52.370;4.832;2023-01-13T12:04:07;15.38;;;1.92;;
77451;SDS011;66537;52.370;4.832;2023-01-13T12:06:41;10.27;;;1.60;;
77451;SDS011;66537;52.370;4.832;2023-01-13T12:23:05;12.68;;;1.60;;
77451;SDS011;66537;52.370;4.832;2023-01-13T12:25:39;14.98;;;1.85;;
77451;SDS011;66537;52.370;4.832;2023-01-13T12:28:13;12.20;;;1.95;;
77451;SDS011;66537;52.370;4.832;2023-01-13T12:31:01;13.77;;;1.50;;
77451;SDS011;66537;52.370;4.832;2023-01-13T12:38:48;15.73;;;1.90;;
77451;SDS011;66537;52.370;4.832;2023-01-13T12:43:55;19.70;;;3.70;;
77451;SDS011;66537;52.370;4.832;2023-01-13T12:46:47;14.32;;;1.92;;
77451;SDS011;66537;52.370;4.832;2023-01-13T12:49:24;18.73;;;2.17;;
77451;SDS011;66537;52.370;4.832;2023-01-13T12:59:40;18.55;;;2.10;;
77451;SDS011;66537;52.370;4.832;2023-01-13T13:04:49;11.60;;;1.25;;
77451;SDS011;66537;52.370;4.832;2023-01-13T13:07:18;14.43;;;1.77;;
77451;SDS011;66537;52.370;4.832;2023-01-13T13:09:52;21.65;;;2.42;;
77451;SDS011;66537;52.370;4.832;2023-01-13T13:15:25;11.88;;;1.70;;
77451;SDS011;66537;52.370;4.832;2023-01-13T13:26:28;13.18;;;1.58;;
77451;SDS011;66537;52.370;4.832;2023-01-13T13:37:34;17.00;;;2.00;;
77451;SDS011;66537;52.370;4.832;2023-01-13T13:40:22;12.70;;;2.22;;
77451;SDS011;66537;52.370;4.832;2023-01-13T13:43:08;13.98;;;1.73;;
77451;SDS011;66537;52.370;4.832;2023-01-13T13:45:55;12.05;;;1.70;;
77451;SDS011;66537;52.370;4.832;2023-01-13T13:48:39;14.30;;;2.28;;
77451;SDS011;66537;52.370;4.832;2023-01-13T13:51:28;16.38;;;2.67;;
77451;SDS011;66537;52.370;4.832;2023-01-13T13:54:01;19.83;;;2.38;;
77451;SDS011;66537;52.370;4.832;2023-01-13T13:56:27;22.88;;;2.42;;
77451;SDS011;66537;52.370;4.832;2023-01-13T13:58:56;12.93;;;2.38;;
77451;SDS011;66537;52.370;4.832;2023-01-13T14:01:25;14.32;;;1.58;;
77451;SDS011;66537;52.370;4.832;2023-01-13T14:04:04;14.93;;;2.10;;
77451;SDS011;66537;52.370;4.832;2023-01-13T14:06:35;21.10;;;1.60;;
77451;SDS011;66537;52.370;4.832;2023-01-13T14:09:01;21.80;;;2.20;;
77451;SDS011;66537;52.370;4.832;2023-01-13T14:11:28;13.98;;;1.70;;
77451;SDS011;66537;52.370;4.832;2023-01-13T14:14:03;18.15;;;2.33;;
77451;SDS011;66537;52.370;4.832;2023-01-13T14:16:30;9.50;;;1.75;;
77451;SDS011;66537;52.370;4.832;2023-01-13T14:18:57;21.60;;;2.10;;
77451;SDS011;66537;52.370;4.832;2023-01-13T14:21:24;14.27;;;2.30;;
77451;SDS011;66537;52.370;4.832;2023-01-13T14:24:01;13.85;;;1.88;;
77451;SDS011;66537;52.370;4.832;2023-01-13T14:26:38;12.82;;;1.40;;
77451;SDS011;66537;52.370;4.832;2023-01-13T14:29:03;13.85;;;1.95;;
77451;SDS011;66537;52.370;4.832;2023-01-13T14:31:30;15.48;;;2.65;;
77451;SDS011;66537;52.370;4.832;2023-01-13T14:33:56;17.00;;;1.77;;
77451;SDS011;66537;52.370;4.832;2023-01-13T14:41:28;18.85;;;2.10;;
77451;SDS011;66537;52.370;4.832;2023-01-13T14:43:58;15.07;;;2.03;;
77451;SDS011;66537;52.370;4.832;2023-01-13T14:46:46;20.67;;;2.55;;
77451;SDS011;66537;52.370;4.832;2023-01-13T14:51:45;17.63;;;2.67;;
77451;SDS011;66537;52.370;4.832;2023-01-13T14:57:29;13.25;;;2.15;;
77451;SDS011;66537;52.370;4.832;2023-01-13T14:59:58;14.40;;;1.73;;
77451;SDS011;66537;52.370;4.832;2023-01-13T15:04:57;19.45;;;2.08;;
77451;SDS011;66537;52.370;4.832;2023-01-13T15:07:52;15.05;;;1.38;;
77451;SDS011;66537;52.370;4.832;2023-01-13T15:10:18;16.52;;;2.03;;
77451;SDS011;66537;52.370;4.832;2023-01-13T15:12:51;14.18;;;2.05;;
77451;SDS011;66537;52.370;4.832;2023-01-13T15:15:22;12.68;;;2.05;;
77451;SDS011;66537;52.370;4.832;2023-01-13T15:17:58;14.65;;;1.50;;
77451;SDS011;66537;52.370;4.832;2023-01-13T15:20:44;17.70;;;1.73;;
77451;SDS011;66537;52.370;4.832;2023-01-13T15:23:10;19.90;;;2.28;;
77451;SDS011;66537;52.370;4.832;2023-01-13T15:25:39;17.95;;;2.45;;
77451;SDS011;66537;52.370;4.832;2023-01-13T15:28:06;18.88;;;1.65;;
77451;SDS011;66537;52.370;4.832;2023-01-13T15:30:38;15.32;;;2.00;;
77451;SDS011;66537;52.370;4.832;2023-01-13T15:33:04;17.70;;;2.60;;
77451;SDS011;66537;52.370;4.832;2023-01-13T15:35:29;17.17;;;2.27;;
77451;SDS011;66537;52.370;4.832;2023-01-13T15:37:55;12.55;;;2.03;;
77451;SDS011;66537;52.370;4.832;2023-01-13T15:40:22;13.88;;;1.50;;
77451;SDS011;66537;52.370;4.832;2023-01-13T15:42:50;18.10;;;3.05;;
77451;SDS011;66537;52.370;4.832;2023-01-13T15:45:34;19.85;;;1.85;;
77451;SDS011;66537;52.370;4.832;2023-01-13T15:48:20;13.98;;;1.70;;
77451;SDS011;66537;52.370;4.832;2023-01-13T15:50:47;12.35;;;1.67;;
77451;SDS011;66537;52.370;4.832;2023-01-13T15:53:13;13.75;;;2.08;;
77451;SDS011;66537;52.370;4.832;2023-01-13T15:55:39;14.70;;;1.85;;
77451;SDS011;66537;52.370;4.832;2023-01-13T16:03:04;14.68;;;2.10;;
77451;SDS011;66537;52.370;4.832;2023-01-13T16:05:29;16.42;;;2.30;;
77451;SDS011;66537;52.370;4.832;2023-01-13T16:07:54;10.00;;;0.95;;
77451;SDS011;66537;52.370;4.832;2023-01-13T16:10:26;11.05;;;1.77;;
77451;SDS011;66537;52.370;4.832;2023-01-13T16:12:53;13.35;;;1.60;;
77451;SDS011;66537;52.370;4.832;2023-01-13T16:15:22;10.52;;;1.50;;
77451;SDS011;66537;52.370;4.832;2023-01-13T16:17:51;11.60;;;1.25;;
77451;SDS011;66537;52.370;4.832;2023-01-13T16:20:20;14.27;;;1.58;;
77451;SDS011;66537;52.370;4.832;2023-01-13T16:22:46;18.48;;;2.58;;
77451;SDS011;66537;52.370;4.832;2023-01-13T16:25:18;16.90;;;2.17;;
77451;SDS011;66537;52.370;4.832;2023-01-13T16:27:53;14.93;;;2.58;;
77451;SDS011;66537;52.370;4.832;2023-01-13T16:35:21;14.77;;;1.98;;
77451;SDS011;66537;52.370;4.832;2023-01-13T16:37:47;14.80;;;1.85;;
77451;SDS011;66537;52.370;4.832;2023-01-13T16:42:58;14.90;;;1.60;;
77451;SDS011;66537;52.370;4.832;2023-01-13T16:45:25;13.43;;;1.55;;
77451;SDS011;66537;52.370;4.832;2023-01-13T16:47:51;11.50;;;1.40;;
77451;SDS011;66537;52.370;4.832;2023-01-13T16:53:04;12.95;;;2.08;;
77451;SDS011;66537;52.370;4.832;2023-01-13T16:55:33;12.75;;;1.73;;
77451;SDS011;66537;52.370;4.832;2023-01-13T16:58:03;11.32;;;1.17;;
77451;SDS011;66537;52.370;4.832;2023-01-13T17:00:30;13.10;;;2.17;;
77451;SDS011;66537;52.370;4.832;2023-01-13T17:02:56;15.38;;;1.67;;
77451;SDS011;66537;52.370;4.832;2023-01-13T17:05:25;14.27;;;1.85;;
77451;SDS011;66537;52.370;4.832;2023-01-13T17:07:50;14.43;;;2.08;;
77451;SDS011;66537;52.370;4.832;2023-01-13T17:10:17;14.43;;;1.70;;
77451;SDS011;66537;52.370;4.832;2023-01-13T17:12:44;11.85;;;1.35;;
77451;SDS011;66537;52.370;4.832;2023-01-13T17:15:10;13.67;;;1.13;;
77451;SDS011;66537;52.370;4.832;2023-01-13T17:17:37;13.43;;;1.67;;
77451;SDS011;66537;52.370;4.832;2023-01-13T17:20:02;15.32;;;2.08;;
77451;SDS011;66537;52.370;4.832;2023-01-13T17:22:28;9.23;;;1.38;;
77451;SDS011;66537;52.370;4.832;2023-01-13T17:24:54;8.60;;;1.83;;
77451;SDS011;66537;52.370;4.832;2023-01-13T17:27:20;14.82;;;1.17;;
77451;SDS011;66537;52.370;4.832;2023-01-13T17:29:47;14.05;;;1.73;;
77451;SDS011;66537;52.370;4.832;2023-01-13T17:32:13;14.35;;;1.50;;